createdAt,value
2018-06-03T00:01:01.363Z,18.10
2018-06-03T00:06:05.881Z,18.00
2018-06-03T00:11:09.302Z,17.90
2018-06-03T00:16:13.796Z,17.90
2018-06-03T00:21:30.039Z,17.90
2018-06-03T00:26:35.942Z,17.80
2018-06-03T00:31:42.474Z,17.80
2018-06-03T00:36:47.671Z,17.80
2018-06-03T00:41:51.047Z,17.80
2018-06-03T00:46:54.474Z,17.70
2018-06-03T00:51:58.064Z,17.80
2018-06-03T00:57:10.171Z,17.70
2018-06-03T01:02:14.640Z,17.70
2018-06-03T01:07:18.157Z,17.60
2018-06-03T01:12:21.652Z,17.60
2018-06-03T01:17:25.149Z,17.50
2018-06-03T01:22:28.729Z,17.50
2018-06-03T01:27:34.212Z,17.40
2018-06-03T01:32:37.798Z,17.40
2018-06-03T01:37:41.265Z,17.50
2018-06-03T01:42:44.659Z,17.70
2018-06-03T01:47:48.085Z,17.80
2018-06-03T01:52:52.146Z,18.00
2018-06-03T01:57:55.510Z,17.90
2018-06-03T02:02:59.744Z,17.80
2018-06-03T02:08:03.190Z,17.70
2018-06-03T02:13:06.613Z,17.60
2018-06-03T02:18:10.041Z,17.50
2018-06-03T02:23:13.444Z,17.50
2018-06-03T02:28:20.089Z,17.40
2018-06-03T02:33:23.541Z,17.20
2018-06-03T02:38:28.010Z,17.20
2018-06-03T02:43:31.498Z,17.10
2018-06-03T02:48:34.857Z,16.90
2018-06-03T02:53:38.365Z,16.90
2018-06-03T02:58:42.889Z,16.90
2018-06-03T03:03:46.367Z,16.80
2018-06-03T03:08:49.765Z,16.80
2018-06-03T03:13:54.115Z,16.60
2018-06-03T03:18:57.990Z,16.60
2018-06-03T03:24:02.604Z,16.50
2018-06-03T03:29:13.086Z,16.50
2018-06-03T03:34:19.044Z,16.40
2018-06-03T03:39:22.549Z,16.40
2018-06-03T03:44:26.044Z,16.40
2018-06-03T03:49:29.458Z,16.40
2018-06-03T03:54:34.151Z,16.30
2018-06-03T03:59:37.638Z,16.30
2018-06-03T04:04:41.048Z,16.30
2018-06-03T04:09:44.458Z,16.20
2018-06-03T04:14:47.822Z,16.30
2018-06-03T04:19:52.218Z,16.40
2018-06-03T04:24:55.550Z,16.50
2018-06-03T04:29:58.995Z,16.50
2018-06-03T04:35:02.408Z,16.50
2018-06-03T04:40:05.860Z,16.60
2018-06-03T04:45:09.257Z,16.60
2018-06-03T04:50:12.653Z,16.70
2018-06-03T04:55:16.133Z,16.70
2018-06-03T05:00:19.662Z,16.80
2018-06-03T05:05:23.078Z,17.00
2018-06-03T05:10:26.445Z,17.20
2018-06-03T05:15:29.881Z,17.60
2018-06-03T05:20:33.368Z,17.60
2018-06-03T05:25:36.778Z,17.50
2018-06-03T05:30:40.196Z,17.80
2018-06-03T05:35:43.630Z,18.00
2018-06-03T05:40:47.232Z,18.20
2018-06-03T05:45:50.656Z,18.40
2018-06-03T05:55:57.197Z,18.90
2018-06-03T06:01:03.733Z,19.00
2018-06-03T06:06:09.605Z,19.20
2018-06-03T06:11:13.105Z,19.40
2018-06-03T06:16:16.531Z,19.40
2018-06-03T06:21:19.927Z,19.40
2018-06-03T06:26:23.500Z,19.70
2018-06-03T06:31:26.944Z,19.90
2018-06-03T06:36:30.394Z,19.90
2018-06-03T06:41:33.793Z,20.00
2018-06-03T06:51:40.331Z,20.50
2018-06-03T06:56:43.712Z,20.70
2018-06-03T07:01:47.164Z,21.00
2018-06-03T07:06:50.512Z,21.30
2018-06-03T07:11:55.928Z,21.80
2018-06-03T07:16:59.306Z,22.20
2018-06-03T07:22:02.824Z,22.60
2018-06-03T07:27:06.381Z,22.90
2018-06-03T07:32:09.866Z,23.20
2018-06-03T07:37:13.289Z,23.50
2018-06-03T07:42:16.719Z,23.50
2018-06-03T07:47:20.130Z,23.70
2018-06-03T07:52:23.602Z,23.70
2018-06-03T07:57:30.463Z,23.80
2018-06-03T08:02:33.943Z,23.80
2018-06-03T08:07:37.384Z,24.10
2018-06-03T08:12:40.803Z,24.70
2018-06-03T08:17:49.107Z,24.90
2018-06-03T08:22:54.614Z,25.20
2018-06-03T08:27:58.059Z,25.70
2018-06-03T08:33:01.549Z,25.90
2018-06-03T08:38:04.955Z,26.20
2018-06-03T08:43:08.408Z,26.40
2018-06-03T08:48:11.832Z,26.80
2018-06-03T08:53:15.251Z,27.10
2018-06-03T08:58:18.686Z,27.20
2018-06-03T09:03:24.144Z,27.60
2018-06-03T09:08:27.607Z,28.00
2018-06-03T09:13:31.111Z,27.60
2018-06-03T09:18:34.649Z,28.00
2018-06-03T09:23:40.152Z,28.10
2018-06-03T09:28:43.534Z,28.40
2018-06-03T09:33:47.368Z,28.40
2018-06-03T09:38:53.745Z,28.90
2018-06-03T09:43:57.171Z,29.30
2018-06-03T09:49:00.573Z,29.00
2018-06-03T09:54:04.025Z,29.20
2018-06-03T09:59:07.386Z,29.40
2018-06-03T10:04:11.161Z,29.70
2018-06-03T10:09:14.658Z,30.50
2018-06-03T10:19:21.372Z,31.30
2018-06-03T10:24:28.777Z,31.40
2018-06-03T10:29:32.195Z,31.70
2018-06-03T10:34:35.541Z,32.30
2018-06-03T10:39:39.082Z,32.70
2018-06-03T10:44:42.591Z,32.80
2018-06-03T10:49:46.947Z,31.40
2018-06-03T10:54:50.512Z,30.60
2018-06-03T10:59:53.994Z,29.80
2018-06-03T11:04:57.416Z,30.00
2018-06-03T11:10:00.961Z,30.50
2018-06-03T11:15:04.455Z,30.70
2018-06-03T11:20:07.847Z,31.40
2018-06-03T11:25:11.423Z,32.10
2018-06-03T11:30:15.694Z,32.90
2018-06-03T11:35:19.167Z,33.30
2018-06-03T11:40:22.659Z,33.90
2018-06-03T11:45:27.155Z,34.10
2018-06-03T11:50:30.645Z,33.70
2018-06-03T11:55:34.032Z,33.80
2018-06-03T12:00:37.412Z,34.00
2018-06-03T12:05:44.642Z,33.40
2018-06-03T12:10:48.084Z,33.50
2018-06-03T12:15:51.545Z,33.90
2018-06-03T12:20:54.977Z,33.80
2018-06-03T12:25:58.343Z,33.90
2018-06-03T12:31:01.874Z,33.80
2018-06-03T12:36:05.443Z,33.80
2018-06-03T12:41:08.868Z,33.80
2018-06-03T12:46:12.372Z,33.50
2018-06-03T12:51:15.787Z,33.00
2018-06-03T12:56:19.172Z,32.70
2018-06-03T13:01:22.720Z,33.20
2018-06-03T13:06:26.241Z,33.00
2018-06-03T13:11:29.846Z,33.70
2018-06-03T13:16:33.298Z,34.30
2018-06-03T13:21:42.112Z,34.30
2018-06-03T13:26:47.791Z,34.50
2018-06-03T13:31:51.213Z,34.80
2018-06-03T13:36:54.608Z,34.60
2018-06-03T13:42:00.317Z,33.50
2018-06-03T13:47:03.767Z,32.80
2018-06-03T13:52:09.364Z,32.40
2018-06-03T13:57:12.924Z,32.90
2018-06-03T14:02:16.503Z,33.10
2018-06-03T14:07:22.341Z,33.80
2018-06-03T14:12:26.034Z,34.10
2018-06-03T14:17:29.712Z,34.10
2018-06-03T14:22:34.226Z,33.90
2018-06-03T14:27:38.737Z,33.80
2018-06-03T14:32:42.275Z,33.70
2018-06-03T14:37:45.843Z,33.50
2018-06-03T14:42:50.329Z,33.80
2018-06-03T14:47:53.909Z,33.60
2018-06-03T14:52:59.859Z,33.20
2018-06-03T14:58:03.594Z,33.20
2018-06-03T15:03:08.015Z,33.50
2018-06-03T15:08:11.595Z,33.30
2018-06-03T15:13:14.967Z,33.30
2018-06-03T15:18:18.495Z,33.40
2018-06-03T15:23:21.975Z,33.20
2018-06-03T15:28:25.414Z,33.30
2018-06-03T15:33:28.854Z,33.00
2018-06-03T15:38:32.242Z,33.20
2018-06-03T15:43:35.634Z,33.30
2018-06-03T15:48:39.236Z,33.30
2018-06-03T15:53:42.925Z,32.90
2018-06-03T15:58:46.472Z,32.50
2018-06-03T16:03:50.065Z,32.70
2018-06-03T16:08:53.500Z,32.80
2018-06-03T16:13:57.069Z,33.00
2018-06-03T16:19:01.013Z,32.80
2018-06-03T16:24:04.590Z,32.80
2018-06-03T16:29:08.132Z,32.60
2018-06-03T16:34:11.596Z,31.80
2018-06-03T16:39:15.485Z,31.60
2018-06-03T16:44:18.913Z,31.90
2018-06-03T16:49:22.513Z,32.40
2018-06-03T16:59:29.079Z,32.80
2018-06-03T17:04:33.184Z,33.10
2018-06-03T17:09:36.766Z,33.60
2018-06-03T17:14:40.300Z,34.10
2018-06-03T17:19:43.623Z,34.20
2018-06-03T17:24:48.095Z,34.40
2018-06-03T17:29:51.624Z,35.10
2018-06-03T17:34:55.011Z,35.40
2018-06-03T17:39:58.523Z,36.30
2018-06-03T17:45:02.064Z,37.30
2018-06-03T17:50:05.465Z,37.50
2018-06-03T17:55:08.888Z,38.00
2018-06-03T18:00:12.321Z,37.90
2018-06-03T18:05:15.739Z,37.20
2018-06-03T18:10:20.180Z,36.40
2018-06-03T18:15:24.615Z,35.90
2018-06-03T18:20:30.087Z,34.60
2018-06-03T18:25:33.757Z,33.20
2018-06-03T18:30:37.171Z,32.20
2018-06-03T18:35:40.809Z,31.30
2018-06-03T18:40:44.368Z,30.50
2018-06-03T18:45:47.825Z,29.80
2018-06-03T18:50:51.386Z,29.30
2018-06-03T18:55:55.093Z,28.70
2018-06-03T19:00:58.511Z,28.20
2018-06-03T19:06:02.186Z,27.80
2018-06-03T19:11:07.059Z,27.40
2018-06-03T19:16:10.939Z,26.90
2018-06-03T19:21:14.636Z,26.60
2018-06-03T19:26:18.614Z,26.30
2018-06-03T19:31:22.448Z,26.10
2018-06-03T19:36:26.191Z,25.90
2018-06-03T19:41:29.865Z,25.60
2018-06-03T19:46:35.653Z,25.40
2018-06-03T19:51:39.541Z,25.00
2018-06-03T19:56:43.649Z,24.90
2018-06-03T20:01:47.221Z,24.70
2018-06-03T20:06:51.154Z,24.50
2018-06-03T20:11:54.815Z,24.30
2018-06-03T20:16:58.443Z,24.20
2018-06-03T20:22:02.134Z,24.10
2018-06-03T20:27:05.763Z,23.90
2018-06-03T20:32:09.482Z,23.80
2018-06-03T20:37:13.209Z,23.60
2018-06-03T20:42:16.797Z,23.50
2018-06-03T20:47:20.925Z,23.40
2018-06-03T20:52:24.716Z,23.30
2018-06-03T20:57:29.999Z,23.30
2018-06-03T21:02:33.783Z,23.10
2018-06-03T21:07:37.512Z,23.00
2018-06-03T21:12:41.124Z,22.80
2018-06-03T21:17:44.910Z,22.70
2018-06-03T21:22:48.601Z,22.50
2018-06-03T21:27:53.135Z,22.40
2018-06-03T21:32:56.864Z,22.40
2018-06-03T21:38:00.481Z,22.20
2018-06-03T21:43:04.262Z,22.20
2018-06-03T21:48:13.128Z,22.10
2018-06-03T21:53:16.929Z,22.00
2018-06-03T21:58:20.711Z,22.00
2018-06-03T22:03:24.440Z,21.90
2018-06-03T22:08:28.252Z,21.80
2018-06-03T22:13:32.900Z,21.60
2018-06-03T22:18:36.767Z,21.40
2018-06-03T22:23:40.497Z,21.40
2018-06-03T22:28:44.143Z,21.40
2018-06-03T22:33:47.982Z,21.20
2018-06-03T22:38:51.758Z,21.20
2018-06-03T22:43:55.461Z,20.90
2018-06-03T22:49:00.325Z,20.90
2018-06-03T22:59:08.347Z,20.70
2018-06-03T23:04:12.115Z,20.60
2018-06-03T23:09:15.924Z,20.40
2018-06-03T23:14:19.653Z,20.40
2018-06-03T23:19:27.377Z,20.10
2018-06-03T23:24:31.044Z,20.10
2018-06-03T23:29:34.538Z,20.10
2018-06-03T23:34:37.977Z,20.00
2018-06-03T23:39:44.678Z,19.90
2018-06-03T23:44:48.083Z,19.80
2018-06-03T23:49:51.658Z,19.70
2018-06-03T23:54:57.273Z,19.70
